createdAt,value
2019-02-07T00:04:36.067Z,11.10
2019-02-07T00:09:38.172Z,10.17
2019-02-07T00:14:40.124Z,10.40
2019-02-07T00:19:42.277Z,11.63
2019-02-07T00:24:44.530Z,9.77
2019-02-07T00:29:46.438Z,10.37
2019-02-07T00:34:48.448Z,9.40
2019-02-07T00:39:50.435Z,11.07
2019-02-07T00:44:52.678Z,9.60
2019-02-07T00:49:55.885Z,9.93
2019-02-07T00:54:57.818Z,9.47
2019-02-07T00:59:59.664Z,10.30
2019-02-07T01:05:01.784Z,9.93
2019-02-07T01:10:05.843Z,10.67
2019-02-07T01:15:09.466Z,9.30
2019-02-07T01:20:12.888Z,9.50
2019-02-07T01:25:17.536Z,9.07
2019-02-07T01:30:20.321Z,9.60
2019-02-07T01:35:22.436Z,8.77
2019-02-07T01:40:24.977Z,8.67
2019-02-07T01:45:26.967Z,8.07
2019-02-07T01:50:30.193Z,7.97
2019-02-07T01:55:32.121Z,8.73
2019-02-07T02:00:34.228Z,7.93
2019-02-07T02:05:36.138Z,8.10
2019-02-07T02:10:39.127Z,8.10
2019-02-07T02:15:41.339Z,7.03
2019-02-07T02:20:43.360Z,6.70
2019-02-07T02:25:45.423Z,7.53
2019-02-07T02:30:47.427Z,6.63
2019-02-07T02:35:50.070Z,6.57
2019-02-07T02:40:52.011Z,7.70
2019-02-07T02:45:54.289Z,6.37
2019-02-07T02:50:57.443Z,7.37
2019-02-07T02:56:01.358Z,7.57
2019-02-07T03:01:26.194Z,7.97
2019-02-07T03:06:48.017Z,8.23
2019-02-07T03:12:14.356Z,7.50
2019-02-07T03:17:35.526Z,7.00
2019-02-07T03:22:56.516Z,8.27
2019-02-07T03:28:18.120Z,7.90
2019-02-07T03:33:36.199Z,7.63
2019-02-07T03:39:00.659Z,7.47
2019-02-07T03:44:22.585Z,7.17
2019-02-07T03:49:50.023Z,7.70
2019-02-07T03:55:02.463Z,7.23
2019-02-07T04:00:18.059Z,7.23
2019-02-07T04:05:39.942Z,7.13
2019-02-07T04:11:12.410Z,6.30
2019-02-07T04:16:23.578Z,6.27
2019-02-07T04:21:40.206Z,6.13
2019-02-07T04:26:58.897Z,6.63
2019-02-07T04:32:18.970Z,6.80
2019-02-07T04:37:38.963Z,6.20
2019-02-07T04:42:50.599Z,6.00
2019-02-07T04:48:02.392Z,7.47
2019-02-07T04:53:32.967Z,5.97
2019-02-07T04:58:53.070Z,6.10
2019-02-07T05:04:10.577Z,6.33
2019-02-07T05:09:30.757Z,5.10
2019-02-07T05:15:10.366Z,5.77
2019-02-07T05:20:39.150Z,5.30
2019-02-07T05:25:59.487Z,4.80
2019-02-07T05:31:17.322Z,4.37
2019-02-07T05:36:44.441Z,4.60
2019-02-07T05:42:04.896Z,4.23
2019-02-07T05:47:26.595Z,4.53
2019-02-07T05:52:52.661Z,4.60
2019-02-07T05:58:17.284Z,4.70
2019-02-07T06:03:33.283Z,4.73
2019-02-07T06:08:57.743Z,4.93
2019-02-07T06:14:18.238Z,4.63
2019-02-07T06:19:30.625Z,5.00
2019-02-07T06:24:55.287Z,4.87
2019-02-07T06:30:13.820Z,5.07
2019-02-07T06:35:27.788Z,4.97
2019-02-07T06:40:55.472Z,4.90
2019-02-07T06:46:05.130Z,5.43
2019-02-07T06:51:38.850Z,4.90
2019-02-07T06:57:18.997Z,4.77
2019-02-07T07:03:05.151Z,5.83
2019-02-07T07:08:26.537Z,4.37
2019-02-07T07:13:51.329Z,4.70
2019-02-07T07:19:29.355Z,6.60
2019-02-07T07:24:51.288Z,6.37
2019-02-07T07:30:01.608Z,6.30
2019-02-07T07:35:32.539Z,5.00
2019-02-07T07:40:54.144Z,5.50
2019-02-07T07:46:12.341Z,5.50
2019-02-07T07:51:40.151Z,5.43
2019-02-07T07:56:51.362Z,5.60
2019-02-07T08:02:18.488Z,6.00
2019-02-07T08:07:40.483Z,5.77
2019-02-07T08:12:55.414Z,5.30
2019-02-07T08:18:13.059Z,5.33
2019-02-07T08:23:25.499Z,5.37
2019-02-07T08:28:35.994Z,5.93
2019-02-07T08:34:00.814Z,4.90
2019-02-07T08:39:23.151Z,5.33
2019-02-07T08:44:49.599Z,5.60
2019-02-07T08:50:36.797Z,5.43
2019-02-07T08:55:57.933Z,5.67
2019-02-07T09:01:37.951Z,5.67
2019-02-07T09:07:11.939Z,5.43
2019-02-07T09:12:39.959Z,5.83
2019-02-07T09:17:52.587Z,5.53
2019-02-07T09:23:05.310Z,6.40
2019-02-07T09:28:14.558Z,5.97
2019-02-07T09:33:35.284Z,6.23
2019-02-07T09:38:56.423Z,5.97
2019-02-07T09:44:24.185Z,6.43
2019-02-07T09:49:34.981Z,6.77
2019-02-07T09:54:52.205Z,5.97
2019-02-07T10:00:12.540Z,5.93
2019-02-07T10:05:40.010Z,5.67
2019-02-07T10:11:00.245Z,7.03
2019-02-07T10:16:25.062Z,9.83
2019-02-07T10:21:50.022Z,6.80
2019-02-07T10:27:14.636Z,11.27
2019-02-07T10:32:35.043Z,6.73
2019-02-07T10:37:50.130Z,5.80
2019-02-07T10:43:11.489Z,5.60
2019-02-07T10:48:27.758Z,6.30
2019-02-07T10:53:50.232Z,5.73
2019-02-07T10:59:11.913Z,6.20
2019-02-07T11:04:33.804Z,6.20
2019-02-07T11:09:58.364Z,6.37
2019-02-07T11:15:08.337Z,6.60
2019-02-07T11:20:38.990Z,6.00
2019-02-07T11:26:16.571Z,7.13
2019-02-07T11:31:30.398Z,6.87
2019-02-07T11:36:54.116Z,7.20
2019-02-07T11:42:10.114Z,6.47
2019-02-07T11:47:31.945Z,6.50
2019-02-07T11:52:42.605Z,6.40
2019-02-07T11:58:01.434Z,7.03
2019-02-07T12:03:29.190Z,6.40
2019-02-07T12:08:49.521Z,7.80
2019-02-07T12:14:07.262Z,7.90
2019-02-07T12:19:27.625Z,7.30
2019-02-07T12:24:49.225Z,7.70
2019-02-07T12:30:23.309Z,7.93
2019-02-07T12:35:43.730Z,8.23
2019-02-07T12:41:08.198Z,9.23
2019-02-07T12:46:38.677Z,9.20
2019-02-07T12:51:59.495Z,9.00
2019-02-07T12:57:19.883Z,9.93
2019-02-07T13:02:39.692Z,10.30
2019-02-07T13:08:11.583Z,10.27
2019-02-07T13:13:21.540Z,10.40
2019-02-07T13:18:30.204Z,9.60
2019-02-07T13:23:59.446Z,11.97
2019-02-07T13:29:20.774Z,11.07
2019-02-07T13:34:34.883Z,10.80
2019-02-07T13:39:58.149Z,10.80
2019-02-07T13:45:19.476Z,11.63
2019-02-07T13:50:39.935Z,11.37
2019-02-07T13:55:54.164Z,11.80
2019-02-07T14:01:34.244Z,11.07
2019-02-07T14:06:54.572Z,12.13
2019-02-07T14:12:10.047Z,12.67
2019-02-07T14:17:26.315Z,12.30
2019-02-07T14:22:37.435Z,12.57
2019-02-07T14:27:58.345Z,12.10
2019-02-07T14:33:23.698Z,13.03
2019-02-07T14:38:50.536Z,12.33
2019-02-07T14:44:13.826Z,12.43
2019-02-07T14:49:15.902Z,12.53
2019-02-07T14:54:17.998Z,13.70
2019-02-07T14:59:21.538Z,12.90
2019-02-07T15:04:23.528Z,12.33
2019-02-07T15:09:26.008Z,14.03
2019-02-07T15:14:28.010Z,13.60
2019-02-07T15:19:30.026Z,13.47
2019-02-07T15:24:31.957Z,12.53
2019-02-07T15:29:34.287Z,14.20
2019-02-07T15:34:36.379Z,13.70
2019-02-07T15:39:38.521Z,12.87
2019-02-07T15:44:40.567Z,15.23
2019-02-07T15:49:43.101Z,13.60
2019-02-07T15:54:45.091Z,12.13
2019-02-07T15:59:51.605Z,12.40
2019-02-07T16:04:54.601Z,13.17
2019-02-07T16:09:56.596Z,12.83
2019-02-07T16:14:58.995Z,13.13
2019-02-07T16:20:01.078Z,12.10
2019-02-07T16:25:05.715Z,13.83
2019-02-07T16:30:11.542Z,12.50
2019-02-07T16:35:15.748Z,12.83
2019-02-07T16:40:18.637Z,13.03
2019-02-07T16:45:21.208Z,13.83
2019-02-07T16:50:23.417Z,13.47
2019-02-07T16:55:25.610Z,12.57
2019-02-07T17:00:41.064Z,12.63
2019-02-07T17:05:43.153Z,13.73
2019-02-07T17:10:45.301Z,11.93
2019-02-07T17:15:48.716Z,13.40
2019-02-07T17:20:51.070Z,13.27
2019-02-07T17:25:52.954Z,14.77
2019-02-07T17:30:55.365Z,14.80
2019-02-07T17:35:57.471Z,14.67
2019-02-07T17:40:59.464Z,14.37
2019-02-07T17:46:01.690Z,14.97
2019-02-07T17:51:04.798Z,14.67
2019-02-07T17:56:07.401Z,14.87
2019-02-07T18:01:09.819Z,15.57
2019-02-07T18:06:12.010Z,14.73
2019-02-07T18:11:13.918Z,15.50
2019-02-07T18:16:15.804Z,14.87
2019-02-07T18:21:17.721Z,14.80
2019-02-07T18:26:19.676Z,15.47
2019-02-07T18:31:21.584Z,16.97
2019-02-07T18:36:23.777Z,16.10
2019-02-07T18:41:26.001Z,15.60
2019-02-07T18:46:29.049Z,16.70
2019-02-07T18:51:31.204Z,16.47
2019-02-07T18:56:33.104Z,16.40
2019-02-07T19:01:35.012Z,15.93
2019-02-07T19:06:36.900Z,17.33
2019-02-07T19:11:38.844Z,16.67
2019-02-07T19:16:41.062Z,17.33
2019-02-07T19:21:43.000Z,16.90
2019-02-07T19:26:44.941Z,18.33
2019-02-07T19:31:46.844Z,17.93
2019-02-07T19:36:48.930Z,17.93
2019-02-07T19:41:50.956Z,16.37
2019-02-07T19:46:52.851Z,17.90
2019-02-07T19:51:54.877Z,18.13
2019-02-07T19:56:56.911Z,17.20
2019-02-07T20:01:58.818Z,18.97
2019-02-07T20:07:00.700Z,19.03
2019-02-07T20:12:03.358Z,17.47
2019-02-07T20:17:06.673Z,15.97
2019-02-07T20:22:19.790Z,16.43
2019-02-07T20:27:13.268Z,16.67
2019-02-07T20:32:15.192Z,17.33
2019-02-07T20:37:17.128Z,17.77
2019-02-07T20:42:19.027Z,17.30
2019-02-07T20:47:21.020Z,16.67
2019-02-07T20:52:27.254Z,16.40
2019-02-07T20:57:26.739Z,16.37
2019-02-07T21:02:28.671Z,17.17
2019-02-07T21:07:30.602Z,16.23
2019-02-07T21:12:32.596Z,16.77
2019-02-07T21:17:34.604Z,16.57
2019-02-07T21:22:36.970Z,16.00
2019-02-07T21:27:38.978Z,16.90
2019-02-07T21:32:41.054Z,16.27
2019-02-07T21:37:43.274Z,15.87
2019-02-07T21:42:45.379Z,16.43
2019-02-07T21:47:47.410Z,15.93
2019-02-07T21:52:49.527Z,16.07
2019-02-07T21:57:51.730Z,15.53
2019-02-07T22:02:54.520Z,17.20
2019-02-07T22:07:56.727Z,18.20
2019-02-07T22:12:58.647Z,17.57
2019-02-07T22:18:01.063Z,17.13
2019-02-07T22:23:03.701Z,18.53
2019-02-07T22:28:06.433Z,19.20
2019-02-07T22:33:08.544Z,16.87
2019-02-07T22:38:10.531Z,18.60
2019-02-07T22:43:12.464Z,18.83
2019-02-07T22:48:14.379Z,19.47
2019-02-07T22:53:16.341Z,19.10
2019-02-07T22:58:37.205Z,18.00
2019-02-07T23:03:44.242Z,16.97
2019-02-07T23:08:47.787Z,16.53
2019-02-07T23:13:49.992Z,16.90
2019-02-07T23:18:52.310Z,15.50
2019-02-07T23:23:54.251Z,15.13
2019-02-07T23:28:56.293Z,15.23
2019-02-07T23:33:58.713Z,16.00
2019-02-07T23:39:00.572Z,15.43
2019-02-07T23:44:04.168Z,15.33
2019-02-07T23:49:07.083Z,15.77
2019-02-07T23:54:09.201Z,15.43
2019-02-07T23:59:11.141Z,15.83
